createdAt,value
2016-04-06T00:00:59.585Z,23.07
2016-04-06T00:01:59.604Z,23.1
2016-04-06T00:02:59.591Z,23.17
2016-04-06T00:03:59.593Z,23.04
2016-04-06T00:04:59.612Z,23.04
2016-04-06T00:05:59.629Z,23.1
2016-04-06T00:06:59.617Z,23
2016-04-06T00:07:59.620Z,23.13
2016-04-06T00:08:59.622Z,23.02
2016-04-06T00:09:59.625Z,23
2016-04-06T00:10:59.642Z,23.01
2016-04-06T00:11:59.661Z,23.01
2016-04-06T00:12:59.648Z,23.02
2016-04-06T00:13:59.650Z,23.02
2016-04-06T00:14:59.669Z,23.02
2016-04-06T00:15:59.672Z,23.02
2016-04-06T00:16:59.690Z,23.04
2016-04-06T00:17:59.693Z,22.95
2016-04-06T00:18:59.742Z,23.05
2016-04-06T00:20:02.058Z,23.01
2016-04-06T00:20:59.716Z,23
2016-04-06T00:21:59.547Z,23.05
2016-04-06T00:22:59.722Z,23.02
2016-04-06T00:23:59.725Z,22.98
2016-04-06T00:24:59.743Z,23.02
2016-04-06T00:25:59.746Z,23.01
2016-04-06T00:26:59.732Z,23.05
2016-04-06T00:27:59.751Z,23.09
2016-04-06T00:28:59.754Z,23.04
2016-04-06T00:29:59.757Z,23.05
2016-04-06T00:30:59.760Z,22.98
2016-04-06T00:31:59.763Z,23.02
2016-04-06T00:32:59.780Z,22.98
2016-04-06T00:34:00.033Z,23.07
2016-04-06T00:34:59.785Z,23.02
2016-04-06T00:35:59.788Z,22.98
2016-04-06T00:36:59.806Z,23.05
2016-04-06T00:37:59.793Z,23.02
2016-04-06T00:38:59.796Z,23
2016-04-06T00:39:59.815Z,22.98
2016-04-06T00:40:59.818Z,23.05
2016-04-06T00:41:59.836Z,23.04
2016-04-06T00:42:59.839Z,23.02
2016-04-06T00:43:59.888Z,23.05
2016-04-06T00:44:59.844Z,23.01
2016-04-06T00:45:59.847Z,23
2016-04-06T00:46:59.849Z,23.07
2016-04-06T00:47:59.853Z,23.02
2016-04-06T00:48:59.902Z,22.97
2016-04-06T00:49:59.873Z,23.07
2016-04-06T00:50:59.875Z,23.01
2016-04-06T00:51:59.894Z,23.02
2016-04-06T00:52:59.881Z,23.07
2016-04-06T00:53:59.899Z,22.95
2016-04-06T00:54:59.902Z,23.05
2016-04-06T00:55:59.920Z,23.02
2016-04-06T00:56:59.955Z,22.95
2016-04-06T00:57:59.941Z,22.94
2016-04-06T00:58:59.929Z,23.01
2016-04-06T00:59:59.947Z,22.95
2016-04-06T01:00:59.934Z,22.98
2016-04-06T01:01:59.952Z,22.95
2016-04-06T01:02:59.971Z,23.07
2016-04-06T01:04:00.020Z,22.98
2016-04-06T01:04:59.976Z,22.98
2016-04-06T01:05:59.962Z,22.94
2016-04-06T01:06:59.981Z,22.92
2016-04-06T01:07:59.984Z,22.95
2016-04-06T01:08:59.987Z,22.91
2016-04-06T01:10:00.005Z,22.86
2016-04-06T01:10:59.992Z,22.98
2016-04-06T01:12:00.010Z,22.98
2016-04-06T01:13:00.012Z,22.98
2016-04-06T01:14:00.031Z,22.9
2016-04-06T01:15:00.050Z,22.95
2016-04-06T01:16:00.053Z,22.97
2016-04-06T01:17:00.056Z,22.95
2016-04-06T01:18:00.042Z,22.95
2016-04-06T01:19:00.311Z,22.97
2016-04-06T01:20:00.063Z,22.9
2016-04-06T01:21:00.066Z,22.86
2016-04-06T01:22:00.069Z,23
2016-04-06T01:23:00.086Z,22.94
2016-04-06T01:24:00.074Z,23.09
2016-04-06T01:25:00.107Z,23.02
2016-04-06T01:26:00.095Z,23.05
2016-04-06T01:27:00.113Z,23.05
2016-04-06T01:28:00.116Z,23
2016-04-06T01:29:00.119Z,23.07
2016-04-06T01:30:00.105Z,23.02
2016-04-06T01:31:00.124Z,23.02
2016-04-06T01:32:00.126Z,23.02
2016-04-06T01:33:00.129Z,23.05
2016-04-06T01:34:00.100Z,23.05
2016-04-06T01:35:00.150Z,23.05
2016-04-06T01:36:00.168Z,23.04
2016-04-06T01:37:00.156Z,23.02
2016-04-06T01:38:00.159Z,23.04
2016-04-06T01:39:00.162Z,23.05
2016-04-06T01:40:00.179Z,23.02
2016-04-06T01:41:00.182Z,23.04
2016-04-06T01:42:00.184Z,23.02
2016-04-06T01:43:00.187Z,23.04
2016-04-06T01:44:00.206Z,23
2016-04-06T01:45:00.209Z,23
2016-04-06T01:46:00.227Z,23.02
2016-04-06T01:47:00.214Z,23
2016-04-06T01:48:00.217Z,23
2016-04-06T01:49:00.219Z,23.02
2016-04-06T01:50:00.253Z,23.02
2016-04-06T01:51:00.239Z,23.01
2016-04-06T01:52:00.242Z,23
2016-04-06T01:53:00.261Z,23
2016-04-06T01:54:00.247Z,23
2016-04-06T01:55:00.251Z,22.98
2016-04-06T01:56:00.285Z,23
2016-04-06T01:57:00.272Z,23.04
2016-04-06T01:58:00.275Z,23.01
2016-04-06T01:59:00.293Z,23.02
2016-04-06T02:00:00.296Z,23
2016-04-06T02:01:00.298Z,23.07
2016-04-06T02:02:00.301Z,23.07
2016-04-06T02:03:00.303Z,22.97
2016-04-06T02:04:00.321Z,23.01
2016-04-06T02:05:00.324Z,22.94
2016-04-06T02:06:00.390Z,22.9
2016-04-06T02:07:00.362Z,22.97
2016-04-06T02:08:00.184Z,22.85
2016-04-06T02:09:00.343Z,22.86
2016-04-06T02:10:00.363Z,22.97
2016-04-06T02:11:00.365Z,22.92
2016-04-06T02:12:00.352Z,22.92
2016-04-06T02:13:00.385Z,22.95
2016-04-06T02:14:00.373Z,22.95
2016-04-06T02:15:00.376Z,22.98
2016-04-06T02:16:00.394Z,22.86
2016-04-06T02:17:00.397Z,22.88
2016-04-06T02:18:00.399Z,22.9
2016-04-06T02:19:00.418Z,22.94
2016-04-06T02:20:00.420Z,22.94
2016-04-06T02:21:00.423Z,22.95
2016-04-06T02:22:00.442Z,22.86
2016-04-06T02:23:00.429Z,22.83
2016-04-06T02:24:00.432Z,22.88
2016-04-06T02:25:00.450Z,22.88
2016-04-06T02:26:00.453Z,22.86
2016-04-06T02:27:00.470Z,22.85
2016-04-06T02:28:00.458Z,22.9
2016-04-06T02:29:00.475Z,22.91
2016-04-06T02:30:00.494Z,22.85
2016-04-06T02:31:00.481Z,22.85
2016-04-06T02:32:00.484Z,22.9
2016-04-06T02:33:00.487Z,23
2016-04-06T02:34:00.506Z,22.98
2016-04-06T02:35:00.492Z,23.07
2016-04-06T02:36:00.511Z,23.01
2016-04-06T02:37:00.513Z,23.04
2016-04-06T02:38:00.516Z,23.05
2016-04-06T02:39:00.519Z,23.01
2016-04-06T02:40:00.552Z,23
2016-04-06T02:41:00.539Z,22.98
2016-04-06T02:42:00.542Z,23.04
2016-04-06T02:43:00.544Z,23.01
2016-04-06T02:44:00.547Z,22.98
2016-04-06T02:45:00.566Z,23.05
2016-04-06T02:46:00.569Z,22.98
2016-04-06T02:47:00.571Z,22.92
2016-04-06T02:48:00.574Z,23
2016-04-06T02:49:00.592Z,22.94
2016-04-06T02:50:00.595Z,22.98
2016-04-06T02:51:00.582Z,23.09
2016-04-06T02:52:00.601Z,23.02
2016-04-06T02:53:00.619Z,23.02
2016-04-06T02:54:00.606Z,23
2016-04-06T02:55:00.624Z,23.02
2016-04-06T02:56:00.626Z,23.02
2016-04-06T02:57:00.645Z,23.04
2016-04-06T02:58:00.632Z,22.95
2016-04-06T02:59:00.650Z,23.02
2016-04-06T03:00:00.653Z,23.02
2016-04-06T03:01:00.656Z,23.04
2016-04-06T03:02:00.659Z,23.04
2016-04-06T03:03:00.678Z,23.05
2016-04-06T03:04:00.680Z,23
2016-04-06T03:05:00.683Z,23
2016-04-06T03:06:00.686Z,22.95
2016-04-06T03:07:00.688Z,23
2016-04-06T03:08:00.691Z,22.98
2016-04-06T03:09:00.708Z,23.01
2016-04-06T03:10:00.727Z,23.05
2016-04-06T03:11:00.744Z,23
2016-04-06T03:12:00.716Z,23.02
2016-04-06T03:13:00.719Z,23
2016-04-06T03:14:00.722Z,22.95
2016-04-06T03:15:00.741Z,23.01
2016-04-06T03:16:00.758Z,23.01
2016-04-06T03:17:00.761Z,23.04
2016-04-06T03:18:00.763Z,23
2016-04-06T03:19:00.766Z,23
2016-04-06T03:20:00.769Z,22.97
2016-04-06T03:21:00.772Z,23.05
2016-04-06T03:22:00.775Z,22.9
2016-04-06T03:23:00.793Z,22.85
2016-04-06T03:24:00.796Z,23
2016-04-06T03:25:00.798Z,23.04
2016-04-06T03:26:00.801Z,23.05
2016-04-06T03:27:00.819Z,23.02
2016-04-06T03:28:00.822Z,23
2016-04-06T03:29:00.825Z,23.04
2016-04-06T03:30:00.827Z,22.98
2016-04-06T03:31:00.846Z,23.05
2016-04-06T03:32:00.833Z,22.94
2016-04-06T03:33:00.851Z,22.9
2016-04-06T03:34:00.854Z,22.97
2016-04-06T03:35:00.857Z,22.82
2016-04-06T03:36:00.859Z,22.88
2016-04-06T03:37:00.862Z,22.83
2016-04-06T03:38:00.927Z,22.86
2016-04-06T03:39:00.883Z,22.94
2016-04-06T03:40:00.901Z,22.86
2016-04-06T03:41:00.888Z,22.9
2016-04-06T03:42:00.891Z,22.92
2016-04-06T03:43:00.894Z,22.91
2016-04-06T03:44:00.913Z,22.86
2016-04-06T03:45:00.774Z,22.91
2016-04-06T03:46:00.918Z,22.92
2016-04-06T03:47:00.935Z,22.94
2016-04-06T03:48:00.938Z,22.94
2016-04-06T03:49:00.957Z,22.79
2016-04-06T03:50:00.960Z,22.9
2016-04-06T03:51:00.946Z,22.85
2016-04-06T03:52:00.965Z,22.8
2016-04-06T03:53:00.968Z,22.91
2016-04-06T03:54:00.970Z,22.92
2016-04-06T03:55:00.988Z,22.91
2016-04-06T03:56:00.976Z,22.91
2016-04-06T03:57:00.978Z,22.86
2016-04-06T03:58:00.996Z,22.88
2016-04-06T03:59:00.998Z,22.94
2016-04-06T04:00:01.002Z,22.94
2016-04-06T04:01:01.020Z,22.88
2016-04-06T04:02:01.023Z,22.9
2016-04-06T04:03:01.026Z,22.86
2016-04-06T04:04:01.044Z,22.9
2016-04-06T04:05:01.047Z,22.9
2016-04-06T04:06:01.033Z,22.83
2016-04-06T04:07:01.099Z,22.83
2016-04-06T04:08:01.070Z,22.8
2016-04-06T04:09:00.901Z,22.82
2016-04-06T04:10:01.076Z,22.83
2016-04-06T04:11:01.063Z,22.83
2016-04-06T04:12:01.081Z,22.86
2016-04-06T04:13:01.083Z,22.85
2016-04-06T04:14:01.086Z,22.77
2016-04-06T04:15:01.089Z,22.82
2016-04-06T04:16:01.092Z,22.86
2016-04-06T04:17:01.110Z,22.88
2016-04-06T04:18:01.113Z,22.86
2016-04-06T04:19:01.116Z,22.83
2016-04-06T04:20:01.118Z,22.82
2016-04-06T04:21:01.121Z,22.83
2016-04-06T04:22:01.155Z,22.83
2016-04-06T04:23:01.142Z,22.83
2016-04-06T04:24:01.145Z,22.8
2016-04-06T04:25:01.163Z,22.82
2016-04-06T04:26:01.150Z,22.82
2016-04-06T04:27:01.168Z,22.76
2016-04-06T04:28:01.171Z,22.79
2016-04-06T04:29:01.173Z,22.82
2016-04-06T04:30:01.177Z,22.75
2016-04-06T04:31:01.195Z,22.8
2016-04-06T04:32:01.182Z,22.82
2016-04-06T04:33:01.215Z,22.8
2016-04-06T04:34:01.203Z,22.88
2016-04-06T04:35:01.236Z,22.85
2016-04-06T04:36:01.208Z,22.88
2016-04-06T04:37:01.226Z,22.82
2016-04-06T04:38:01.213Z,22.83
2016-04-06T04:39:01.231Z,22.92
2016-04-06T04:40:01.078Z,22.86
2016-04-06T04:41:01.253Z,22.9
2016-04-06T04:42:01.239Z,22.82
2016-04-06T04:43:01.258Z,22.86
2016-04-06T04:44:01.277Z,22.79
2016-04-06T04:45:01.263Z,22.8
2016-04-06T04:46:01.266Z,22.86
2016-04-06T04:47:01.285Z,22.82
2016-04-06T04:48:01.287Z,22.79
2016-04-06T04:49:01.306Z,22.79
2016-04-06T04:50:01.293Z,22.82
2016-04-06T04:51:01.310Z,22.82
2016-04-06T04:52:01.329Z,22.88
2016-04-06T04:53:01.301Z,22.82
2016-04-06T04:54:01.303Z,22.77
2016-04-06T04:55:01.322Z,22.82
2016-04-06T04:56:01.324Z,22.8
2016-04-06T04:57:01.359Z,22.85
2016-04-06T04:58:01.377Z,22.8
2016-04-06T04:59:01.364Z,22.76
2016-04-06T05:00:01.367Z,22.8
2016-04-06T05:01:01.354Z,22.79
2016-04-06T05:02:01.356Z,22.83
2016-04-06T05:03:01.375Z,22.77
2016-04-06T05:04:01.377Z,22.68
2016-04-06T05:05:01.380Z,22.77
2016-04-06T05:06:01.397Z,22.77
2016-04-06T05:07:01.386Z,22.79
2016-04-06T05:08:01.404Z,22.76
2016-04-06T05:09:01.406Z,22.8
2016-04-06T05:10:01.409Z,22.83
2016-04-06T05:11:01.412Z,22.79
2016-04-06T05:12:01.445Z,22.83
2016-04-06T05:13:01.433Z,22.79
2016-04-06T05:14:01.436Z,22.82
2016-04-06T05:15:01.453Z,22.8
2016-04-06T05:16:01.456Z,22.83
2016-04-06T05:17:01.458Z,22.83
2016-04-06T05:18:01.477Z,22.83
2016-04-06T05:19:01.449Z,22.83
2016-04-06T05:20:01.514Z,22.82
2016-04-06T05:21:01.469Z,22.76
2016-04-06T05:22:01.504Z,22.79
2016-04-06T05:23:01.491Z,22.77
2016-04-06T05:24:01.493Z,22.8
2016-04-06T05:25:01.496Z,22.79
2016-04-06T05:26:01.499Z,22.83
2016-04-06T05:27:01.501Z,22.79
2016-04-06T05:28:01.520Z,22.77
2016-04-06T05:29:01.518Z,22.76
2016-04-06T05:30:01.520Z,22.8
2016-04-06T05:31:01.538Z,22.77
2016-04-06T05:32:01.541Z,22.8
2016-04-06T05:33:01.560Z,22.77
2016-04-06T05:34:01.546Z,22.8
2016-04-06T05:35:01.565Z,22.72
2016-04-06T05:36:01.552Z,22.79
2016-04-06T05:37:01.571Z,22.82
2016-04-06T05:38:01.573Z,22.86
2016-04-06T05:39:01.575Z,22.82
2016-04-06T05:40:01.595Z,22.9
2016-04-06T05:41:01.581Z,22.86
2016-04-06T05:42:01.600Z,22.92
2016-04-06T05:43:01.603Z,22.86
2016-04-06T05:44:01.636Z,22.83
2016-04-06T05:45:01.608Z,22.86
2016-04-06T05:46:01.626Z,22.75
2016-04-06T05:47:01.628Z,22.77
2016-04-06T05:48:01.631Z,22.8
2016-04-06T05:49:01.633Z,22.8
2016-04-06T05:50:01.652Z,22.8
2016-04-06T05:51:01.639Z,22.8
2016-04-06T05:52:01.657Z,22.82
2016-04-06T05:53:01.660Z,22.82
2016-04-06T05:54:01.663Z,22.82
2016-04-06T05:55:01.682Z,22.76
2016-04-06T05:56:01.684Z,22.82
2016-04-06T05:57:01.687Z,22.79
2016-04-06T05:58:01.782Z,22.75
2016-04-06T05:59:01.693Z,22.83
2016-04-06T06:00:01.696Z,22.76
2016-04-06T06:01:01.712Z,22.76
2016-04-06T06:02:01.716Z,22.73
2016-04-06T06:03:01.718Z,22.7
2016-04-06T06:04:01.748Z,22.8
2016-04-06T06:05:01.983Z,22.8
2016-04-06T06:06:01.828Z,22.82
2016-04-06T06:07:01.892Z,22.83
2016-04-06T06:08:01.941Z,22.83
2016-04-06T06:09:01.981Z,22.76
2016-04-06T06:10:02.000Z,22.76
2016-04-06T06:11:02.034Z,22.82
2016-04-06T06:12:02.068Z,22.82
2016-04-06T06:13:02.072Z,22.83
2016-04-06T06:14:02.088Z,22.82
2016-04-06T06:15:02.096Z,22.85
2016-04-06T06:16:02.105Z,22.77
2016-04-06T06:17:02.129Z,22.64
2016-04-06T06:18:02.137Z,22.67
2016-04-06T06:19:02.145Z,22.76
2016-04-06T06:20:02.227Z,22.65
2016-04-06T06:21:02.154Z,22.72
2016-04-06T06:22:02.175Z,22.72
2016-04-06T06:23:02.211Z,22.72
2016-04-06T06:24:02.185Z,22.75
2016-04-06T06:25:02.204Z,22.77
2016-04-06T06:26:02.224Z,22.8
2016-04-06T06:27:02.227Z,22.8
2016-04-06T06:28:02.230Z,22.83
2016-04-06T06:29:02.218Z,22.85
2016-04-06T06:30:02.221Z,22.79
2016-04-06T06:31:02.224Z,22.85
2016-04-06T06:32:02.243Z,22.82
2016-04-06T06:33:02.246Z,22.73
2016-04-06T06:34:02.265Z,22.75
2016-04-06T06:35:02.360Z,22.67
2016-04-06T06:36:02.332Z,22.73
2016-04-06T06:37:02.273Z,22.73
2016-04-06T06:38:02.276Z,22.72
2016-04-06T06:39:02.278Z,22.77
2016-04-06T06:40:02.281Z,22.73
2016-04-06T06:41:02.299Z,22.7
2016-04-06T06:42:02.318Z,22.8
2016-04-06T06:43:02.304Z,22.73
2016-04-06T06:44:02.307Z,22.62
2016-04-06T06:45:02.326Z,22.7
2016-04-06T06:46:02.313Z,22.76
2016-04-06T06:47:02.331Z,22.79
2016-04-06T06:48:02.333Z,22.73
2016-04-06T06:49:02.336Z,22.8
2016-04-06T06:50:02.526Z,22.77
2016-04-06T06:51:02.342Z,22.8
2016-04-06T06:52:02.344Z,22.73
2016-04-06T06:53:02.362Z,22.77
2016-04-06T06:54:02.365Z,22.65
2016-04-06T06:55:02.367Z,22.68
2016-04-06T06:56:02.386Z,22.76
2016-04-06T06:57:02.389Z,22.64
2016-04-06T06:58:02.392Z,22.68
2016-04-06T06:59:02.410Z,22.75
2016-04-06T07:00:02.396Z,22.72
2016-04-06T07:01:02.415Z,22.7
2016-04-06T07:02:02.419Z,22.8
2016-04-06T07:03:02.421Z,22.75
2016-04-06T07:04:02.424Z,22.73
2016-04-06T07:05:02.441Z,22.68
2016-04-06T07:06:02.444Z,22.67
2016-04-06T07:07:02.447Z,22.76
2016-04-06T07:08:02.449Z,22.7
2016-04-06T07:09:02.452Z,22.67
2016-04-06T07:10:02.455Z,22.68
2016-04-06T07:11:02.458Z,22.7
2016-04-06T07:12:02.492Z,22.73
2016-04-06T07:13:02.495Z,22.68
2016-04-06T07:14:02.481Z,22.76
2016-04-06T07:15:02.484Z,22.7
2016-04-06T07:16:02.486Z,22.72
2016-04-06T07:17:02.489Z,22.73
2016-04-06T07:18:02.523Z,22.77
2016-04-06T07:19:02.511Z,22.75
2016-04-06T07:20:02.528Z,22.79
2016-04-06T07:21:02.532Z,22.7
2016-04-06T07:22:02.519Z,22.7
2016-04-06T07:23:02.537Z,22.68
2016-04-06T07:24:02.540Z,22.68
2016-04-06T07:25:02.543Z,22.77
2016-04-06T07:26:02.561Z,22.67
2016-04-06T07:27:02.547Z,22.64
2016-04-06T07:28:02.566Z,22.65
2016-04-06T07:29:02.553Z,22.8
2016-04-06T07:30:02.571Z,22.67
2016-04-06T07:31:02.621Z,22.77
2016-04-06T07:32:02.592Z,22.82
2016-04-06T07:33:02.594Z,22.94
2016-04-06T07:34:02.598Z,23.01
2016-04-06T07:35:02.600Z,23.17
2016-04-06T07:36:02.603Z,23.25
2016-04-06T07:37:02.605Z,23.35
2016-04-06T07:38:02.624Z,23.55
2016-04-06T07:39:02.627Z,23.63
2016-04-06T07:40:02.630Z,23.61
2016-04-06T07:41:02.648Z,23.76
2016-04-06T07:42:02.651Z,23.76
2016-04-06T07:43:02.685Z,23.8
2016-04-06T07:44:02.671Z,23.85
2016-04-06T07:45:02.690Z,23.9
2016-04-06T07:46:02.693Z,23.91
2016-04-06T07:47:02.665Z,24
2016-04-06T07:48:02.698Z,24.05
2016-04-06T07:49:02.701Z,24.13
2016-04-06T07:50:02.720Z,24.13
2016-04-06T07:51:02.722Z,24.16
2016-04-06T07:52:02.725Z,24.25
2016-04-06T07:53:02.711Z,24.24
2016-04-06T07:54:02.761Z,24.25
2016-04-06T07:55:02.717Z,24.28
2016-04-06T07:56:02.735Z,24.3
2016-04-06T07:57:02.753Z,24.46
2016-04-06T07:58:02.741Z,24.34
2016-04-06T07:59:02.759Z,24.31
2016-04-06T08:00:02.761Z,24.37
2016-04-06T08:01:02.764Z,24.47
2016-04-06T08:02:02.782Z,24.49
2016-04-06T08:03:02.801Z,24.5
2016-04-06T08:04:02.788Z,24.4
2016-04-06T08:05:02.790Z,24.45
2016-04-06T08:06:02.808Z,24.45
2016-04-06T08:07:02.811Z,24.45
2016-04-06T08:08:02.830Z,24.5
2016-04-06T08:09:02.833Z,24.45
2016-04-06T08:10:02.835Z,24.45
2016-04-06T08:11:02.838Z,24.45
2016-04-06T08:12:02.841Z,24.52
2016-04-06T08:13:02.843Z,24.46
2016-04-06T08:14:02.862Z,24.53
2016-04-06T08:15:02.865Z,24.5
2016-04-06T08:16:02.851Z,24.42
2016-04-06T08:17:02.854Z,24.46
2016-04-06T08:18:02.856Z,24.53
2016-04-06T08:19:02.875Z,24.53
2016-04-06T08:20:02.878Z,24.53
2016-04-06T08:21:02.895Z,24.52
2016-04-06T08:22:02.898Z,24.65
2016-04-06T08:23:02.917Z,24.55
2016-04-06T08:24:02.920Z,24.6
2016-04-06T08:25:02.939Z,24.57
2016-04-06T08:26:02.925Z,24.58
2016-04-06T08:27:02.928Z,24.49
2016-04-06T08:28:02.946Z,24.53
2016-04-06T08:29:02.950Z,24.47
2016-04-06T08:30:02.967Z,24.47
2016-04-06T08:31:02.955Z,24.46
2016-04-06T08:32:02.972Z,24.46
2016-04-06T08:33:02.960Z,24.47
2016-04-06T08:34:02.978Z,24.5
2016-04-06T08:35:02.997Z,24.53
2016-04-06T08:36:03.000Z,24.52
2016-04-06T08:37:03.017Z,24.49
2016-04-06T08:38:03.019Z,24.46
2016-04-06T08:39:03.007Z,24.47
2016-04-06T08:40:03.041Z,24.45
2016-04-06T08:41:03.028Z,24.42
2016-04-06T08:42:03.030Z,25.09
2016-04-06T08:43:03.049Z,24.85
2016-04-06T08:44:03.052Z,24.71
2016-04-06T08:45:03.055Z,24.81
2016-04-06T08:46:03.057Z,26.06
2016-04-06T08:47:03.091Z,27.1
2016-04-06T08:48:03.079Z,26.05
2016-04-06T08:49:03.081Z,26.18
2016-04-06T08:50:03.114Z,25.69
2016-04-06T08:51:03.102Z,25.13
2016-04-06T08:52:03.089Z,24.99
2016-04-06T08:53:03.107Z,24.91
2016-04-06T08:54:03.126Z,24.71
2016-04-06T08:55:03.128Z,24.6
2016-04-06T08:56:03.147Z,24.55
2016-04-06T08:57:03.134Z,24.52
2016-04-06T08:58:03.152Z,24.53
2016-04-06T08:59:03.155Z,24.5
2016-04-06T09:00:03.157Z,24.52
2016-04-06T09:01:03.161Z,24.65
2016-04-06T09:02:03.178Z,24.6
2016-04-06T09:03:03.181Z,24.76
2016-04-06T09:04:03.183Z,24.64
2016-04-06T09:05:03.202Z,24.61
2016-04-06T09:06:03.205Z,24.5
2016-04-06T09:07:03.223Z,24.57
2016-04-06T09:08:03.210Z,24.49
2016-04-06T09:09:03.228Z,24.57
2016-04-06T09:10:03.230Z,24.62
2016-04-06T09:11:03.233Z,24.69
2016-04-06T09:12:03.252Z,24.64
2016-04-06T09:13:03.254Z,24.64
2016-04-06T09:14:03.274Z,24.73
2016-04-06T09:15:03.260Z,24.73
2016-04-06T09:16:03.262Z,24.67
2016-04-06T09:17:03.281Z,24.62
2016-04-06T09:18:03.284Z,24.61
2016-04-06T09:19:03.302Z,24.65
2016-04-06T09:20:03.304Z,24.67
2016-04-06T09:21:03.308Z,24.67
2016-04-06T09:22:03.326Z,24.69
2016-04-06T09:23:03.328Z,24.58
2016-04-06T09:24:03.332Z,24.57
2016-04-06T09:25:03.334Z,24.58
2016-04-06T09:26:03.337Z,24.6
2016-04-06T09:27:03.355Z,24.62
2016-04-06T09:28:03.358Z,24.64
2016-04-06T09:29:03.376Z,24.62
2016-04-06T09:30:03.378Z,24.6
2016-04-06T09:31:03.381Z,24.65
2016-04-06T09:32:03.384Z,24.61
2016-04-06T09:33:03.403Z,24.62
2016-04-06T09:34:03.405Z,24.64
2016-04-06T09:35:03.423Z,24.6
2016-04-06T09:36:03.426Z,24.61
2016-04-06T09:37:03.444Z,24.67
2016-04-06T09:38:03.431Z,24.67
2016-04-06T09:39:03.450Z,24.67
2016-04-06T09:40:03.499Z,24.68
2016-04-06T09:41:03.455Z,24.67
2016-04-06T09:42:03.458Z,24.61
2016-04-06T09:43:03.481Z,24.6
2016-04-06T09:44:03.484Z,24.61
2016-04-06T09:45:03.558Z,24.65
2016-04-06T09:46:03.513Z,24.61
2016-04-06T09:47:07.860Z,24.58
2016-04-06T09:48:03.503Z,24.57
2016-04-06T09:49:03.505Z,24.55
2016-04-06T09:50:03.541Z,24.5
2016-04-06T09:51:03.543Z,24.52
2016-04-06T09:52:03.546Z,24.46
2016-04-06T09:53:03.548Z,24.5
2016-04-06T09:54:03.551Z,24.49
2016-04-06T09:55:03.569Z,24.49
2016-04-06T09:56:03.571Z,24.55
2016-04-06T09:57:03.590Z,24.6
2016-04-06T09:58:03.593Z,24.52
2016-04-06T09:59:03.595Z,24.53
2016-04-06T10:00:03.598Z,24.65
2016-04-06T10:01:03.615Z,24.5
2016-04-06T10:02:03.619Z,24.65
2016-04-06T10:03:03.637Z,24.65
2016-04-06T10:04:03.624Z,24.58
2016-04-06T10:05:03.643Z,24.55
2016-04-06T10:06:03.661Z,24.5
2016-04-06T10:07:03.648Z,24.47
2016-04-06T10:08:03.651Z,24.58
2016-04-06T10:09:03.669Z,24.55
2016-04-06T10:10:03.672Z,24.52
2016-04-06T10:11:03.737Z,24.53
2016-04-06T10:12:03.677Z,24.6
2016-04-06T10:13:03.695Z,24.57
2016-04-06T10:14:03.698Z,24.5
2016-04-06T10:15:03.716Z,24.45
2016-04-06T10:16:03.719Z,24.47
2016-04-06T10:17:03.722Z,24.6
2016-04-06T10:18:03.725Z,24.57
2016-04-06T10:19:03.743Z,24.47
2016-04-06T10:20:03.746Z,24.52
2016-04-06T10:21:03.764Z,24.47
2016-04-06T10:22:03.751Z,24.5
2016-04-06T10:23:03.769Z,24.5
2016-04-06T10:24:03.788Z,24.52
2016-04-06T10:25:03.774Z,24.53
2016-04-06T10:26:03.793Z,24.5
2016-04-06T10:27:03.796Z,24.46
2016-04-06T10:28:03.799Z,24.45
2016-04-06T10:29:03.816Z,24.45
2016-04-06T10:30:03.818Z,24.46
2016-04-06T10:31:03.822Z,24.47
2016-04-06T10:32:03.840Z,24.53
2016-04-06T10:33:03.843Z,24.5
2016-04-06T10:34:03.845Z,24.49
2016-04-06T10:35:03.849Z,24.47
2016-04-06T10:36:03.867Z,24.39
2016-04-06T10:37:03.853Z,24.46
2016-04-06T10:38:03.872Z,24.47
2016-04-06T10:39:03.875Z,24.32
2016-04-06T10:40:03.925Z,24.37
2016-04-06T10:41:03.911Z,24.34
2016-04-06T10:42:03.898Z,24.32
2016-04-06T10:43:03.917Z,24.27
2016-04-06T10:44:03.966Z,24.31
2016-04-06T10:45:03.922Z,24.32
2016-04-06T10:46:03.941Z,24.28
2016-04-06T10:47:03.944Z,24.27
2016-04-06T10:48:03.947Z,24.2
2016-04-06T10:49:03.964Z,24.2
2016-04-06T10:50:03.951Z,24.25
2016-04-06T10:51:03.969Z,24.2
2016-04-06T10:52:03.972Z,24.27
2016-04-06T10:53:03.975Z,24.25
2016-04-06T10:54:03.993Z,24.22
2016-04-06T10:55:03.980Z,24.25
2016-04-06T10:56:04.296Z,24.24
2016-04-06T10:57:04.610Z,24.25
2016-04-06T10:58:04.019Z,24.2
2016-04-06T10:59:04.054Z,24.15
2016-04-06T11:00:04.024Z,24.27
2016-04-06T11:01:04.027Z,24.16
2016-04-06T11:02:04.029Z,24.2
2016-04-06T11:03:04.049Z,24.24
2016-04-06T11:04:04.067Z,24.25
2016-04-06T11:05:04.100Z,24.21
2016-04-06T11:06:04.212Z,24.21
2016-04-06T11:07:04.091Z,24.24
2016-04-06T11:08:04.093Z,24.3
2016-04-06T11:09:04.095Z,24.2
2016-04-06T11:10:04.193Z,24.28
2016-04-06T11:11:04.101Z,24.3
2016-04-06T11:12:04.119Z,24.35
2016-04-06T11:13:04.123Z,24.31
2016-04-06T11:14:04.126Z,24.34
2016-04-06T11:15:04.144Z,24.25
2016-04-06T11:16:04.130Z,24.37
2016-04-06T11:17:04.149Z,24.35
2016-04-06T11:18:04.152Z,24.31
2016-04-06T11:19:04.154Z,24.37
2016-04-06T11:20:04.172Z,24.31
2016-04-06T11:21:04.081Z,24.34
2016-04-06T11:22:04.178Z,24.34
2016-04-06T11:23:04.196Z,24.4
2016-04-06T11:24:04.183Z,24.34
2016-04-06T11:25:04.202Z,24.35
2016-04-06T11:26:04.219Z,24.35
2016-04-06T11:27:04.222Z,24.35
2016-04-06T11:28:04.225Z,24.4
2016-04-06T11:29:04.227Z,24.28
2016-04-06T11:30:04.230Z,24.39
2016-04-06T11:31:04.248Z,24.35
2016-04-06T11:32:04.267Z,24.34
2016-04-06T11:33:04.270Z,24.32
2016-04-06T11:34:04.288Z,24.32
2016-04-06T11:35:04.307Z,24.28
2016-04-06T11:36:04.575Z,24.3
2016-04-06T11:37:04.296Z,24.35
2016-04-06T11:38:04.315Z,24.31
2016-04-06T11:39:04.301Z,24.34
2016-04-06T11:40:04.304Z,24.37
2016-04-06T11:41:04.306Z,24.28
2016-04-06T11:42:04.326Z,24.24
2016-04-06T11:43:04.328Z,24.24
2016-04-06T11:44:04.347Z,24.31
2016-04-06T11:45:04.349Z,24.32
2016-04-06T11:46:04.352Z,24.2
2016-04-06T11:47:04.355Z,24.2
2016-04-06T11:48:04.358Z,24.27
2016-04-06T11:49:04.375Z,24.22
2016-04-06T11:50:04.394Z,24.2
2016-04-06T11:51:04.491Z,24.16
2016-04-06T11:52:04.399Z,24.16
2016-04-06T11:53:04.402Z,24.18
2016-04-06T11:55:04.422Z,24.16
2016-04-06T11:56:04.425Z,24.22
2016-04-06T11:57:04.428Z,24.24
2016-04-06T11:58:04.431Z,24.22
2016-04-06T11:59:04.449Z,24.32
2016-04-06T12:00:04.452Z,24.3
2016-04-06T12:01:04.454Z,24.27
2016-04-06T12:02:04.473Z,24.22
2016-04-06T12:03:04.476Z,24.2
2016-04-06T12:04:04.479Z,24.22
2016-04-06T12:05:04.481Z,24.34
2016-04-06T12:06:04.499Z,24.3
2016-04-06T12:07:04.501Z,24.24
2016-04-06T12:08:04.512Z,24.27
2016-04-06T12:09:04.514Z,24.28
2016-04-06T12:10:04.516Z,24.27
2016-04-06T12:11:04.519Z,24.32
2016-04-06T12:12:04.538Z,24.31
2016-04-06T12:13:04.541Z,24.31
2016-04-06T12:14:04.558Z,24.32
2016-04-06T12:15:04.561Z,24.3
2016-04-06T12:16:04.564Z,24.3
2016-04-06T12:17:04.568Z,24.34
2016-04-06T12:18:04.587Z,24.32
2016-04-06T12:19:04.590Z,24.28
2016-04-06T12:20:04.593Z,24.25
2016-04-06T12:21:04.626Z,24.28
2016-04-06T12:22:04.598Z,24.25
2016-04-06T12:23:04.616Z,24.34
2016-04-06T12:24:04.650Z,24.28
2016-04-06T12:25:04.637Z,24.32
2016-04-06T12:26:04.640Z,24.31
2016-04-06T12:27:04.642Z,24.32
2016-04-06T12:28:04.645Z,24.21
2016-04-06T12:29:04.679Z,24.27
2016-04-06T12:30:04.666Z,24.34
2016-04-06T12:31:04.669Z,24.32
2016-04-06T12:32:04.516Z,24.25
2016-04-06T12:33:04.674Z,24.21
2016-04-06T12:34:04.694Z,24.31
2016-04-06T12:35:04.696Z,24.34
2016-04-06T12:36:04.713Z,24.4
2016-04-06T12:37:04.716Z,24.27
2016-04-06T12:38:04.719Z,24.32
2016-04-06T12:39:04.721Z,24.35
2016-04-06T12:40:04.741Z,24.34
2016-04-06T12:41:04.743Z,24.35
2016-04-06T12:42:04.746Z,24.43
2016-04-06T12:43:04.763Z,24.43
2016-04-06T12:44:04.766Z,24.35
2016-04-06T12:45:04.754Z,24.39
2016-04-06T12:46:04.772Z,24.49
2016-04-06T12:47:04.790Z,24.52
2016-04-06T12:48:04.792Z,24.57
2016-04-06T12:49:04.796Z,24.49
2016-04-06T12:50:04.798Z,24.47
2016-04-06T12:51:04.816Z,24.5
2016-04-06T12:52:04.834Z,24.55
2016-04-06T12:53:04.823Z,24.49
2016-04-06T12:54:04.840Z,24.46
2016-04-06T12:55:04.842Z,24.5
2016-04-06T12:56:04.846Z,24.46
2016-04-06T12:57:04.863Z,24.47
2016-04-06T12:58:04.867Z,24.47
2016-04-06T12:59:04.885Z,24.47
2016-04-06T13:00:04.872Z,24.34
2016-04-06T13:01:19.016Z,24.37